Time;durP1;ratioP1;P1;durP2;ratioP2;P2;SDS_P1;SDS_P2;PMS_P1;PMS_P2;Temp;Humidity;BMP_temperature;BMP_pressure;BME280_temperature;BME280_humidity;BME280_pressure;Samples;Min_cycle;Max_cycle;Signal;HPM_P1;HPM_P2
2023/11/03 00:02:08;;;;;;;1.80;0.80;;;;;;;14.85;100.00;94886.81;1223864;75;2950310;-71
2023/11/03 00:04:41;;;;;;;1.85;0.70;;;;;;;14.91;100.00;94881.03;1221714;75;3028003;-70
2023/11/03 00:07:14;;;;;;;2.05;0.75;;;;;;;14.80;100.00;94879.56;1225826;75;2922001;-69
2023/11/03 00:09:46;;;;;;;1.85;0.60;;;;;;;14.88;100.00;94877.41;1224338;75;2938597;-69
2023/11/03 00:12:21;;;;;;;1.45;0.55;;;;;;;15.34;100.00;94881.50;1224940;75;2912314;-70
2023/11/03 00:14:54;;;;;;;2.25;0.90;;;;;;;15.02;100.00;94883.28;1225634;75;2924338;-68
2023/11/03 00:17:29;;;;;;;1.90;0.75;;;;;;;14.83;100.00;94886.66;1225742;75;2919423;-68
2023/11/03 00:20:01;;;;;;;0.80;0.65;;;;;;;14.94;100.00;94879.19;1226692;75;2910920;-70
2023/11/03 00:22:35;;;;;;;2.15;0.70;;;;;;;14.86;100.00;94871.00;1225358;75;2918609;-70
2023/11/03 00:25:13;;;;;;;1.90;0.80;;;;;;;14.83;100.00;94867.38;1221321;75;3029432;-68
2023/11/03 00:27:46;;;;;;;2.20;0.60;;;;;;;14.84;100.00;94862.59;1224952;75;2922229;-70
2023/11/03 00:30:19;;;;;;;1.10;0.60;;;;;;;15.05;100.00;94862.13;1225493;75;2916745;-71
2023/11/03 00:32:54;;;;;;;1.85;0.70;;;;;;;14.74;100.00;94870.09;1225758;75;2920207;-68
2023/11/03 00:35:27;;;;;;;2.45;0.80;;;;;;;14.58;100.00;94866.81;1225064;75;2930925;-69
2023/11/03 00:38:00;;;;;;;1.95;0.95;;;;;;;14.77;100.00;94868.94;1224862;75;2921262;-69
2023/11/03 00:40:32;;;;;;;1.75;0.85;;;;;;;14.66;100.00;94859.19;1226041;75;2922004;-68
2023/11/03 00:43:05;;;;;;;4.35;0.90;;;;;;;14.44;100.00;94867.13;1225951;75;2907018;-69
2023/11/03 00:45:37;;;;;;;2.50;0.80;;;;;;;14.48;100.00;94853.69;1226027;75;2914430;-68
2023/11/03 00:48:13;;;;;;;1.75;0.70;;;;;;;14.60;100.00;94851.19;1224690;75;2932988;-69
2023/11/03 00:50:46;;;;;;;1.65;0.60;;;;;;;14.76;100.00;94854.44;1224325;75;2924637;-70
2023/11/03 00:53:18;;;;;;;3.50;0.90;;;;;;;14.35;100.00;94848.53;1224379;75;2930544;-67
2023/11/03 00:55:51;;;;;;;2.40;0.90;;;;;;;14.40;100.00;94858.56;1226178;75;2912675;-66
2023/11/03 00:58:25;;;;;;;1.45;0.55;;;;;;;14.31;100.00;94847.50;1224838;75;2929182;-66
2023/11/03 01:00:58;;;;;;;1.60;1.00;;;;;;;14.39;100.00;94857.13;1195908;75;4962662;-67
2023/11/03 01:03:34;;;;;;;1.75;0.90;;;;;;;14.51;100.00;94840.09;1225641;75;2904552;-66
2023/11/03 01:06:07;;;;;;;1.65;0.75;;;;;;;14.51;100.00;94842.84;1225034;75;2914418;-68
2023/11/03 01:08:40;;;;;;;0.65;0.40;;;;;;;14.47;100.00;94838.47;1225446;75;2916623;-65
2023/11/03 01:11:13;;;;;;;1.30;0.60;;;;;;;14.65;100.00;94843.97;1225629;75;2912226;-64
2023/11/03 01:13:46;;;;;;;1.15;0.55;;;;;;;14.47;100.00;94838.47;1223785;75;2923834;-69
2023/11/03 01:16:19;;;;;;;2.35;0.80;;;;;;;14.56;100.00;94831.59;1225378;75;2916436;-69
2023/11/03 01:18:55;;;;;;;1.05;0.60;;;;;;;14.59;100.00;94821.47;1225912;75;2916242;-67
2023/11/03 01:21:28;;;;;;;1.85;0.60;;;;;;;14.32;100.00;94810.44;1225412;75;2913923;-66
2023/11/03 01:24:00;;;;;;;1.35;0.80;;;;;;;14.50;100.00;94806.31;1225386;75;2913058;-70
2023/11/03 01:26:33;;;;;;;1.35;0.65;;;;;;;14.46;100.00;94812.25;1226424;75;2912821;-68
2023/11/03 01:29:07;;;;;;;0.70;0.50;;;;;;;14.66;100.00;94815.13;1225777;75;2916026;-66
2023/11/03 01:31:40;;;;;;;1.45;0.60;;;;;;;14.29;100.00;94801.28;1225858;75;2916962;-66
2023/11/03 01:34:16;;;;;;;1.95;0.45;;;;;;;14.26;100.00;94791.41;1226100;75;2919815;-68
2023/11/03 01:36:49;;;;;;;0.95;0.80;;;;;;;14.41;100.00;94787.75;1225453;75;2925079;-68
2023/11/03 01:39:21;;;;;;;1.75;0.55;;;;;;;14.24;100.00;94774.78;1224736;75;2919373;-68
2023/11/03 01:41:54;;;;;;;0.85;0.60;;;;;;;14.43;100.00;94755.59;1225905;75;2922550;-67
2023/11/03 01:44:27;;;;;;;0.70;0.50;;;;;;;14.30;100.00;94735.97;1225363;75;2912271;-67
2023/11/03 01:47:00;;;;;;;1.00;0.55;;;;;;;14.31;100.00;94753.94;1226396;75;2917111;-69
2023/11/03 01:49:35;;;;;;;1.90;0.70;;;;;;;14.19;100.00;94735.22;1226358;75;2910056;-71
2023/11/03 01:52:09;;;;;;;1.55;0.80;;;;;;;14.13;100.00;94753.28;1224297;75;2929027;-71
2023/11/03 01:54:42;;;;;;;2.05;0.50;;;;;;;14.18;100.00;94736.50;1224382;75;2918673;-68
2023/11/03 01:57:15;;;;;;;1.65;0.60;;;;;;;14.09;100.00;94736.44;1222459;75;3041490;-68
2023/11/03 01:59:50;;;;;;;1.30;0.60;;;;;;;14.11;100.00;94744.84;1225626;75;2914223;-66
2023/11/03 02:02:25;;;;;;;2.50;0.65;;;;;;;14.03;100.00;94739.47;1226065;75;2924829;-69
2023/11/03 02:05:01;;;;;;;1.45;0.70;;;;;;;13.92;100.00;94742.72;1224797;75;2913780;-68
2023/11/03 02:07:34;;;;;;;1.00;0.60;;;;;;;13.99;100.00;94745.34;1226812;75;2921171;-67
2023/11/03 02:10:07;;;;;;;0.70;0.60;;;;;;;14.17;100.00;94746.06;1226289;75;2921251;-69
2023/11/03 02:12:40;;;;;;;0.60;0.40;;;;;;;14.15;100.00;94745.16;1225467;75;2919854;-70
2023/11/03 02:15:13;;;;;;;1.35;0.50;;;;;;;14.18;100.00;94746.78;1225557;75;2912719;-66
2023/11/03 02:17:46;;;;;;;0.40;0.40;;;;;;;13.97;100.00;94753.44;1223217;75;2967032;-68
2023/11/03 02:20:21;;;;;;;0.75;0.40;;;;;;;14.19;100.00;94748.97;1223665;75;2963265;-67
2023/11/03 02:23:00;;;;;;;1.75;0.65;;;;;;;14.27;100.00;94735.09;1225801;75;2916683;-67
2023/11/03 02:25:33;;;;;;;1.65;0.50;;;;;;;14.07;100.00;94726.03;1225597;75;2915019;-69
2023/11/03 02:28:06;;;;;;;1.10;0.55;;;;;;;13.99;100.00;94720.59;1225469;75;2922240;-69
2023/11/03 02:30:39;;;;;;;1.20;0.60;;;;;;;13.81;100.00;94719.22;1224500;75;2922445;-68
2023/11/03 02:33:12;;;;;;;1.75;0.60;;;;;;;14.01;100.00;94728.28;1225287;75;2912323;-71
2023/11/03 02:35:46;;;;;;;2.10;0.70;;;;;;;13.58;100.00;94739.44;1225643;75;2911375;-68
2023/11/03 02:38:21;;;;;;;1.20;0.60;;;;;;;13.91;100.00;94736.50;1226002;75;2899661;-67
2023/11/03 02:40:55;;;;;;;1.10;0.60;;;;;;;13.83;100.00;94731.09;1224490;75;2932055;-70
2023/11/03 02:43:28;;;;;;;1.85;0.80;;;;;;;13.84;100.00;94729.06;1226011;75;2911687;-70
2023/11/03 02:46:00;;;;;;;1.15;0.45;;;;;;;13.92;100.00;94720.72;1226324;75;2906869;-67
2023/11/03 02:48:33;;;;;;;2.70;0.80;;;;;;;13.76;100.00;94723.66;1226220;75;2913746;-71
2023/11/03 02:51:06;;;;;;;0.95;0.80;;;;;;;14.16;100.00;94716.34;1225403;75;2917943;-69
2023/11/03 02:53:41;;;;;;;1.65;0.60;;;;;;;13.93;100.00;94714.66;1225391;75;2916283;-67
2023/11/03 02:56:23;;;;;;;1.65;0.50;;;;;;;14.15;100.00;94721.13;1225930;75;2922355;-68
2023/11/03 02:58:56;;;;;;;1.30;0.50;;;;;;;13.91;100.00;94720.00;1224711;75;2915171;-68
2023/11/03 03:01:30;;;;;;;1.45;0.80;;;;;;;13.67;100.00;94718.81;1224940;75;2913457;-70
2023/11/03 03:04:03;;;;;;;1.25;0.75;;;;;;;13.72;100.00;94726.09;1225084;75;2911203;-69
2023/11/03 03:06:36;;;;;;;1.95;0.95;;;;;;;13.71;100.00;94715.66;1225504;75;2914029;-73
2023/11/03 03:09:11;;;;;;;0.70;0.50;;;;;;;14.01;100.00;94698.03;1225579;75;2927256;-69
2023/11/03 03:11:45;;;;;;;1.10;0.60;;;;;;;14.07;100.00;94701.28;1224832;75;2923531;-70
2023/11/03 03:14:18;;;;;;;0.90;0.50;;;;;;;14.17;100.00;94693.78;1226104;75;2917561;-69
2023/11/03 03:16:51;;;;;;;0.80;0.40;;;;;;;14.08;100.00;94688.97;1226010;75;2913073;-66
2023/11/03 03:19:24;;;;;;;0.90;0.50;;;;;;;14.00;100.00;94689.06;1225505;75;2915044;-71
2023/11/03 03:21:56;;;;;;;1.25;0.60;;;;;;;14.13;100.00;94704.47;1225689;75;2913952;-66
2023/11/03 03:24:32;;;;;;;2.15;0.50;;;;;;;14.04;100.00;94699.63;1226459;67;2925364;-70
2023/11/03 03:27:04;;;;;;;3.20;0.95;;;;;;;13.47;100.00;94673.25;1225372;75;2914778;-68
2023/11/03 03:29:37;;;;;;;2.90;0.70;;;;;;;13.23;100.00;94645.31;1226017;75;2913586;-68
2023/11/03 03:32:11;;;;;;;1.55;0.70;;;;;;;13.30;100.00;94638.28;1225635;75;2916728;-70
2023/11/03 03:34:43;;;;;;;2.45;0.80;;;;;;;13.17;100.00;94626.31;1225177;75;2917348;-72
2023/11/03 03:37:16;;;;;;;2.75;0.90;;;;;;;13.00;100.00;94613.31;1225962;75;2918046;-68
2023/11/03 03:39:51;;;;;;;3.20;1.05;;;;;;;13.21;100.00;94628.66;1225717;75;2915950;-66
2023/11/03 03:42:26;;;;;;;2.40;0.90;;;;;;;13.63;100.00;94619.53;1225061;75;2925748;-73
2023/11/03 03:44:59;;;;;;;0.90;0.50;;;;;;;13.76;100.00;94610.94;1224833;75;2921434;-70
2023/11/03 03:47:31;;;;;;;1.25;0.50;;;;;;;13.89;100.00;94620.13;1225159;75;2912222;-68
2023/11/03 03:50:04;;;;;;;0.75;0.60;;;;;;;13.93;100.00;94618.41;1225721;75;2921149;-70
2023/11/03 03:52:37;;;;;;;0.40;0.40;;;;;;;13.92;100.00;94625.19;1225925;75;2915171;-65
2023/11/03 03:55:12;;;;;;;1.05;0.50;;;;;;;14.02;100.00;94623.22;1224585;75;2917458;-68
2023/11/03 03:57:45;;;;;;;0.30;0.30;;;;;;;14.13;100.00;94640.47;1226051;75;2924632;-68
2023/11/03 04:00:19;;;;;;;1.10;0.40;;;;;;;14.00;100.00;94652.59;1226464;75;2920511;-68
2023/11/03 04:02:51;;;;;;;2.45;0.40;;;;;;;13.63;100.00;94644.28;1226038;75;2910543;-68
2023/11/03 04:05:25;;;;;;;0.30;0.30;;;;;;;14.04;100.00;94642.59;1224429;75;2997887;-70
2023/11/03 04:07:57;;;;;;;0.75;0.40;;;;;;;14.07;100.00;94649.00;1226015;75;2916149;-66
2023/11/03 04:10:33;;;;;;;0.40;0.30;;;;;;;13.88;100.00;94651.63;1226034;75;2915190;-66
2023/11/03 04:13:05;;;;;;;0.30;0.30;;;;;;;13.91;100.00;94664.25;1225732;75;2930019;-67
2023/11/03 04:15:38;;;;;;;0.40;0.30;;;;;;;14.07;100.00;94679.97;1225710;75;2916748;-70
2023/11/03 04:18:10;;;;;;;0.80;0.40;;;;;;;13.93;100.00;94695.41;1226254;75;2922798;-68
2023/11/03 04:20:43;;;;;;;4.15;3.55;;;;;;;13.47;100.00;94717.97;1225625;75;2921932;-71
2023/11/03 04:23:16;;;;;;;4.75;2.35;;;;;;;13.22;100.00;94718.72;1224689;75;2917795;-65
2023/11/03 04:25:53;;;;;;;2.90;1.55;;;;;;;13.27;100.00;94681.34;1224757;75;2933966;-64
2023/11/03 04:28:26;;;;;;;2.85;1.20;;;;;;;13.51;100.00;94677.03;1224259;75;2917066;-69
2023/11/03 04:30:58;;;;;;;1.90;0.85;;;;;;;13.24;100.00;94717.44;1225323;75;2921221;-70
2023/11/03 04:33:31;;;;;;;3.45;1.30;;;;;;;13.28;100.00;94717.81;1225645;75;2921752;-68
2023/11/03 04:36:04;;;;;;;1.45;0.75;;;;;;;13.53;100.00;94709.47;1224490;75;2920025;-67
2023/11/03 04:38:36;;;;;;;1.05;0.80;;;;;;;13.51;100.00;94701.78;1224613;75;2921369;-71
2023/11/03 04:41:12;;;;;;;2.65;1.10;;;;;;;13.40;100.00;94700.25;1224697;75;2919016;-67
2023/11/03 04:43:44;;;;;;;2.25;1.20;;;;;;;13.19;100.00;94689.66;1225237;75;2918540;-70
2023/11/03 04:46:17;;;;;;;1.25;0.65;;;;;;;13.51;100.00;94690.78;1224150;75;2928355;-67
2023/11/03 04:48:50;;;;;;;2.35;1.20;;;;;;;13.00;100.00;94665.50;1225319;75;2921782;-70
2023/11/03 04:51:23;;;;;;;2.90;1.35;;;;;;;12.75;100.00;94662.81;1224767;75;2922451;-68
2023/11/03 04:53:55;;;;;;;1.60;1.20;;;;;;;13.09;100.00;94644.91;1223762;75;2919629;-69
2023/11/03 04:56:31;;;;;;;0.85;0.80;;;;;;;13.45;100.00;94640.13;1225230;75;2919962;-68
2023/11/03 04:59:05;;;;;;;3.35;1.10;;;;;;;12.88;100.00;94634.31;1225961;75;2924869;-70
2023/11/03 05:01:37;;;;;;;3.00;1.15;;;;;;;12.87;100.00;94635.63;1225376;75;2929060;-69
2023/11/03 05:04:10;;;;;;;3.35;1.25;;;;;;;13.06;100.00;94623.31;1225769;75;2915992;-71
2023/11/03 05:06:43;;;;;;;2.55;0.90;;;;;;;13.34;100.00;94616.63;1225805;75;2921453;-70
2023/11/03 05:09:17;;;;;;;0.90;0.80;;;;;;;13.38;100.00;94609.41;1224358;75;2915890;-70
2023/11/03 05:11:53;;;;;;;0.90;0.70;;;;;;;13.51;100.00;94602.13;1225331;75;2925549;-68
2023/11/03 05:14:25;;;;;;;0.90;0.40;;;;;;;13.49;100.00;94610.91;1225294;75;2917175;-69
2023/11/03 05:16:58;;;;;;;1.75;0.95;;;;;;;13.17;100.00;94609.81;1225783;75;2923073;-71
2023/11/03 05:19:32;;;;;;;1.35;0.90;;;;;;;13.22;100.00;94602.63;1225069;75;2920988;-70
2023/11/03 05:22:05;;;;;;;1.40;0.90;;;;;;;13.31;100.00;94587.53;1224996;75;2914979;-68
2023/11/03 05:24:37;;;;;;;1.00;0.60;;;;;;;13.38;100.00;94575.72;1225192;75;2919024;-66
2023/11/03 05:27:13;;;;;;;0.55;0.55;;;;;;;13.42;100.00;94551.28;1224880;68;2918785;-69
2023/11/03 05:29:46;;;;;;;0.95;0.60;;;;;;;13.30;100.00;94539.38;1225023;75;2915837;-70
2023/11/03 05:32:18;;;;;;;1.00;0.50;;;;;;;13.41;100.00;94538.88;1225438;75;2918559;-68
2023/11/03 05:34:51;;;;;;;3.10;1.90;;;;;;;12.98;100.00;94563.00;1225248;75;2913083;-69
2023/11/03 05:37:23;;;;;;;6.40;4.30;;;;;;;12.89;100.00;94558.16;1225761;75;2913987;-69
2023/11/03 05:39:56;;;;;;;4.65;3.15;;;;;;;12.81;100.00;94552.75;1226024;75;2923469;-71
2023/11/03 05:42:32;;;;;;;3.60;2.25;;;;;;;12.96;100.00;94547.13;1226080;75;2917429;-70
2023/11/03 05:45:04;;;;;;;1.90;1.40;;;;;;;12.86;100.00;94565.53;1224350;75;2916363;-68
2023/11/03 05:47:37;;;;;;;8.60;6.10;;;;;;;12.82;100.00;94600.91;1224942;75;2925862;-69
2023/11/03 05:50:11;;;;;;;2.30;1.60;;;;;;;12.82;100.00;94611.13;1225402;75;2921970;-69
2023/11/03 05:52:44;;;;;;;2.15;0.80;;;;;;;12.88;100.00;94628.09;1225246;75;2922022;-70
2023/11/03 05:55:16;;;;;;;0.50;0.50;;;;;;;13.16;100.00;94641.34;1225428;75;2917057;-69
2023/11/03 05:57:52;;;;;;;0.85;0.60;;;;;;;13.08;100.00;94634.47;1225968;75;2922754;-71
2023/11/03 06:00:27;;;;;;;1.60;0.80;;;;;;;13.18;100.00;94647.00;1224800;75;2917609;-71
2023/11/03 06:03:00;;;;;;;5.75;3.85;;;;;;;13.27;100.00;94642.13;1225455;75;2916997;-68
2023/11/03 06:05:33;;;;;;;4.35;2.70;;;;;;;13.40;100.00;94641.84;1224349;75;2920488;-68
2023/11/03 06:08:06;;;;;;;2.55;1.85;;;;;;;13.32;100.00;94622.66;1224008;75;2931874;-71
2023/11/03 06:10:39;;;;;;;1.10;1.00;;;;;;;13.32;100.00;94591.72;1225771;75;2925429;-68
2023/11/03 06:13:14;;;;;;;1.10;0.85;;;;;;;13.43;100.00;94580.97;1225058;75;2919134;-68
2023/11/03 06:15:47;;;;;;;1.00;0.80;;;;;;;13.33;100.00;94569.19;1224467;75;2923126;-69
2023/11/03 06:18:20;;;;;;;0.90;0.70;;;;;;;13.35;100.00;94569.34;1224880;75;2923887;-69
2023/11/03 06:20:52;;;;;;;0.95;0.45;;;;;;;13.21;100.00;94552.47;1225235;75;2936073;-68
2023/11/03 06:23:25;;;;;;;0.95;0.70;;;;;;;13.16;100.00;94547.97;1224664;75;2924432;-69
2023/11/03 06:25:58;;;;;;;0.75;0.40;;;;;;;12.87;100.00;94547.75;1223562;75;2927110;-69
2023/11/03 06:28:33;;;;;;;1.15;0.50;;;;;;;12.81;100.00;94552.03;1224800;75;2931224;-69
2023/11/03 06:31:07;;;;;;;0.40;0.40;;;;;;;12.75;100.00;94561.25;1224274;75;2927099;-69
2023/11/03 06:33:40;;;;;;;0.40;0.40;;;;;;;12.77;100.00;94596.34;1225407;75;2923444;-68
2023/11/03 06:36:13;;;;;;;0.40;0.40;;;;;;;12.85;100.00;94629.97;1224636;75;2919783;-70
2023/11/03 06:38:45;;;;;;;0.55;0.50;;;;;;;13.07;100.00;94657.75;1224104;75;2926625;-69
2023/11/03 06:41:19;;;;;;;0.80;0.50;;;;;;;12.88;100.00;94661.06;1224553;75;2928980;-71
2023/11/03 06:43:54;;;;;;;2.90;1.30;;;;;;;12.89;100.00;94651.50;1224468;75;2919786;-70
2023/11/03 06:46:27;;;;;;;1.40;1.15;;;;;;;13.12;100.00;94635.53;1224567;75;2919802;-69
2023/11/03 06:49:00;;;;;;;1.05;0.70;;;;;;;12.91;100.00;94618.72;1224573;75;2930278;-69
2023/11/03 06:51:32;;;;;;;1.70;0.95;;;;;;;12.82;100.00;94642.09;1222347;75;2951637;-69
2023/11/03 06:54:05;;;;;;;1.30;0.95;;;;;;;12.95;100.00;94633.50;1223465;75;2920645;-70
2023/11/03 06:56:39;;;;;;;1.10;0.70;;;;;;;12.74;100.00;94614.69;1223480;75;2920142;-69
2023/11/03 06:59:14;;;;;;;1.75;0.60;;;;;;;12.78;100.00;94592.34;1225105;75;2919153;-71
2023/11/03 07:01:47;;;;;;;0.60;0.50;;;;;;;12.81;100.00;94547.28;1223510;75;2921345;-69
2023/11/03 07:04:21;;;;;;;1.00;0.50;;;;;;;12.68;100.00;94520.91;1224302;75;2915512;-70
2023/11/03 07:06:54;;;;;;;1.15;0.70;;;;;;;12.61;100.00;94508.00;1225450;75;2914006;-70
2023/11/03 07:09:26;;;;;;;1.20;0.65;;;;;;;12.58;100.00;94451.50;1224943;75;2918628;-70
2023/11/03 07:12:00;;;;;;;1.05;0.50;;;;;;;12.69;100.00;94392.63;1225276;75;2915692;-71
2023/11/03 07:14:35;;;;;;;2.05;0.60;;;;;;;12.34;100.00;94387.22;1224647;75;2926029;-70
2023/11/03 07:17:08;;;;;;;0.75;0.50;;;;;;;12.42;100.00;94434.50;1224706;75;2924113;-71
2023/11/03 07:19:42;;;;;;;1.25;0.50;;;;;;;12.58;100.00;94514.63;1224932;75;2925518;-70
2023/11/03 07:22:15;;;;;;;1.25;0.70;;;;;;;12.50;100.00;94522.19;1224625;75;2924128;-69
2023/11/03 07:24:48;;;;;;;0.80;0.50;;;;;;;12.71;100.00;94549.94;1224174;75;2924638;-72
2023/11/03 07:27:23;;;;;;;1.85;0.80;;;;;;;12.40;100.00;94593.44;1224600;75;2919801;-69
2023/11/03 07:29:58;;;;;;;0.50;0.50;;;;;;;12.43;100.00;94608.03;1220239;75;2924449;-71
2023/11/03 07:32:31;;;;;;;0.50;0.50;;;;;;;12.18;100.00;94633.47;1222824;75;2922276;-71
2023/11/03 07:35:03;;;;;;;1.75;0.75;;;;;;;12.30;100.00;94661.19;1223369;75;2931212;-71
2023/11/03 07:37:38;;;;;;;1.75;0.70;;;;;;;12.31;100.00;94630.47;1223363;75;2924587;-68
2023/11/03 07:40:14;;;;;;;1.00;0.70;;;;;;;12.34;100.00;94618.38;1223422;75;2919719;-71
2023/11/03 07:42:46;;;;;;;1.35;0.60;;;;;;;12.44;100.00;94601.28;1224057;75;2922402;-71
2023/11/03 07:45:23;;;;;;;1.10;0.60;;;;;;;12.36;100.00;94571.16;1225193;75;2923800;-69
2023/11/03 07:47:56;;;;;;;0.60;0.50;;;;;;;12.51;100.00;94584.03;1224498;75;2917677;-69
2023/11/03 07:50:28;;;;;;;1.00;0.60;;;;;;;12.20;100.00;94532.19;1224785;75;2920903;-72
2023/11/03 07:53:03;;;;;;;1.15;0.55;;;;;;;12.62;100.00;94445.59;1225059;75;2924788;-70
2023/11/03 07:55:37;;;;;;;1.10;0.65;;;;;;;12.34;100.00;94489.44;1223895;75;2926783;-70
2023/11/03 07:58:09;;;;;;;0.60;0.50;;;;;;;12.40;100.00;94504.94;1224283;75;2929347;-71
2023/11/03 08:00:45;;;;;;;1.20;0.70;;;;;;;12.44;100.00;94511.47;1224599;75;2916967;-71
2023/11/03 08:03:17;;;;;;;1.85;1.50;;;;;;;12.53;100.00;94526.53;1224942;67;2923249;-69
2023/11/03 08:05:50;;;;;;;1.75;0.80;;;;;;;12.57;100.00;94562.53;1224148;75;2923885;-69
2023/11/03 08:08:23;;;;;;;2.25;0.70;;;;;;;12.61;100.00;94584.81;1224430;75;2918402;-72
2023/11/03 08:10:56;;;;;;;1.00;0.60;;;;;;;12.87;100.00;94583.47;1224208;75;2921284;-71
2023/11/03 08:13:29;;;;;;;1.30;0.85;;;;;;;12.85;100.00;94557.88;1223956;75;2942202;-71
2023/11/03 08:16:06;;;;;;;1.20;0.60;;;;;;;12.96;100.00;94532.63;1223493;75;2915934;-70
2023/11/03 08:18:39;;;;;;;2.10;0.65;;;;;;;12.71;100.00;94569.16;1223559;75;2916485;-69
2023/11/03 08:21:11;;;;;;;1.25;0.70;;;;;;;12.90;100.00;94600.81;1223917;75;2923984;-69
2023/11/03 08:23:44;;;;;;;4.75;1.45;;;;;;;13.14;100.00;94608.22;1223908;75;2925684;-70
2023/11/03 08:26:20;;;;;;;1.70;0.50;;;;;;;13.40;100.00;94611.59;1224591;75;2919097;-72
2023/11/03 08:28:54;;;;;;;0.70;0.60;;;;;;;13.24;100.00;94618.56;1223255;75;2920197;-69
2023/11/03 08:31:29;;;;;;;2.10;1.00;;;;;;;13.45;100.00;94601.66;1222816;75;2925088;-71
2023/11/03 08:34:02;;;;;;;3.40;1.60;;;;;;;13.53;100.00;94602.28;1223447;75;2923836;-69
2023/11/03 08:36:34;;;;;;;3.25;2.05;;;;;;;13.09;100.00;94595.47;1223399;75;2924996;-70
2023/11/03 08:39:08;;;;;;;3.95;2.80;;;;;;;13.04;100.00;94582.00;1223896;75;2920927;-70
2023/11/03 08:41:41;;;;;;;1.25;0.70;;;;;;;13.02;100.00;94610.00;1224917;75;2921524;-72
2023/11/03 08:44:14;;;;;;;0.70;0.40;;;;;;;13.15;100.00;94650.88;1224653;75;2922778;-71
2023/11/03 08:46:50;;;;;;;0.65;0.50;;;;;;;12.98;100.00;94651.59;1223903;75;2916427;-69
2023/11/03 08:49:24;;;;;;;1.10;0.55;;;;;;;12.84;100.00;94627.78;1223553;75;2924113;-69
2023/11/03 08:51:57;;;;;;;1.10;0.60;;;;;;;12.87;100.00;94610.16;1224117;75;2923728;-70
2023/11/03 08:54:30;;;;;;;0.70;0.50;;;;;;;12.71;100.00;94612.34;1223582;75;2923257;-69
2023/11/03 08:57:02;;;;;;;0.75;0.50;;;;;;;12.86;100.00;94614.22;1223715;75;2921119;-69
2023/11/03 08:59:35;;;;;;;1.35;0.70;;;;;;;12.63;100.00;94623.41;1222939;75;2917394;-70
2023/11/03 09:02:10;;;;;;;1.60;1.10;;;;;;;12.69;100.00;94623.88;1223074;75;2925721;-69
2023/11/03 09:04:43;;;;;;;1.20;0.90;;;;;;;12.75;100.00;94618.91;1224605;75;2923664;-70
2023/11/03 09:07:16;;;;;;;0.60;0.45;;;;;;;12.90;100.00;94615.25;1222911;83;2930898;-70
2023/11/03 09:09:48;;;;;;;2.20;0.55;;;;;;;12.86;100.00;94622.44;1223482;75;2932800;-72
2023/11/03 09:12:21;;;;;;;0.40;0.40;;;;;;;12.83;100.00;94627.06;1223357;75;2919521;-70
2023/11/03 09:14:54;;;;;;;1.25;0.50;;;;;;;12.88;100.00;94628.09;1224855;75;2923167;-70
2023/11/03 09:17:31;;;;;;;1.40;0.80;;;;;;;12.72;100.00;94628.28;1222340;75;2950596;-69
2023/11/03 09:20:04;;;;;;;0.65;0.50;;;;;;;12.96;100.00;94636.97;1224628;75;2916824;-71
2023/11/03 09:22:37;;;;;;;1.25;0.55;;;;;;;12.68;100.00;94638.91;1224907;75;2923062;-69
2023/11/03 09:25:12;;;;;;;1.20;0.60;;;;;;;12.52;100.00;94627.34;1224298;75;2926691;-71
2023/11/03 09:27:44;;;;;;;0.60;0.45;;;;;;;12.57;100.00;94636.63;1223805;67;2948647;-69
2023/11/03 09:30:17;;;;;;;1.25;0.50;;;;;;;12.58;100.00;94660.06;1224132;75;2925962;-70
2023/11/03 09:32:53;;;;;;;0.95;0.50;;;;;;;12.52;100.00;94665.75;1223854;75;2916220;-69
2023/11/03 09:35:26;;;;;;;4.30;1.15;;;;;;;12.42;100.00;94680.66;1223998;75;2954216;-69
2023/11/03 09:37:59;;;;;;;3.00;1.25;;;;;;;12.51;100.00;94669.78;1224662;75;2925324;-68
2023/11/03 09:40:34;;;;;;;1.80;0.60;;;;;;;12.46;100.00;94675.50;1224411;75;2921405;-70
2023/11/03 09:43:08;;;;;;;1.65;0.75;;;;;;;12.58;100.00;94674.50;1224809;75;2919612;-69
2023/11/03 09:45:42;;;;;;;1.20;0.85;;;;;;;12.50;100.00;94667.59;1225411;75;2919586;-68
2023/11/03 09:48:19;;;;;;;1.20;0.50;;;;;;;12.52;100.00;94665.75;1224170;75;2931060;-69
2023/11/03 09:50:53;;;;;;;1.75;1.00;;;;;;;12.46;100.00;94643.31;1224978;75;2922160;-68
2023/11/03 09:53:27;;;;;;;1.85;0.55;;;;;;;12.51;100.00;94636.16;1224576;75;2919488;-69
2023/11/03 09:56:02;;;;;;;2.05;0.45;;;;;;;12.51;100.00;94655.34;1223095;75;2931668;-71
2023/11/03 09:58:36;;;;;;;2.40;1.30;;;;;;;12.38;100.00;94658.38;1221181;75;2967464;-69
2023/11/03 10:01:11;;;;;;;0.60;0.50;;;;;;;12.42;100.00;94667.66;1223457;75;2924084;-69
2023/11/03 10:03:47;;;;;;;1.10;0.50;;;;;;;12.45;100.00;94663.06;1225718;75;2921720;-67
2023/11/03 10:06:20;;;;;;;1.65;0.70;;;;;;;12.36;100.00;94665.16;1224656;75;2915675;-68
2023/11/03 10:08:54;;;;;;;2.10;0.70;;;;;;;12.28;100.00;94608.91;1223644;75;2921657;-67
2023/11/03 10:11:27;;;;;;;2.80;1.90;;;;;;;12.43;100.00;94629.97;1224625;75;2927595;-71
2023/11/03 10:14:00;;;;;;;2.45;1.25;;;;;;;12.35;100.00;94633.53;1224839;75;2920541;-69
2023/11/03 10:16:32;;;;;;;1.40;0.60;;;;;;;12.46;100.00;94635.09;1223568;75;2918848;-69
2023/11/03 10:19:09;;;;;;;0.75;0.40;;;;;;;12.52;100.00;94618.38;1223941;75;2919327;-68
2023/11/03 10:21:43;;;;;;;2.10;0.40;;;;;;;12.76;100.00;94583.94;1223725;75;2954670;-70
2023/11/03 10:24:17;;;;;;;1.00;0.60;;;;;;;12.71;100.00;94577.41;1220506;75;3054336;-70
2023/11/03 10:26:53;;;;;;;0.75;0.40;;;;;;;12.82;100.00;94556.97;1224925;75;2921720;-69
2023/11/03 10:29:26;;;;;;;1.10;0.65;;;;;;;13.10;100.00;94560.50;1224700;75;2919679;-68
2023/11/03 10:31:58;;;;;;;1.60;0.80;;;;;;;13.00;100.00;94530.22;1224670;75;2926467;-68
2023/11/03 10:34:37;;;;;;;2.15;1.10;;;;;;;13.11;100.00;94534.50;1224601;75;2922014;-70
2023/11/03 10:37:11;;;;;;;0.85;0.60;;;;;;;13.37;100.00;94530.31;1224771;75;2922842;-70
2023/11/03 10:39:45;;;;;;;1.25;0.80;;;;;;;13.85;100.00;94535.28;1224403;75;2919243;-70
2023/11/03 10:42:23;;;;;;;0.50;0.50;;;;;;;14.19;100.00;94537.13;1225052;75;2925886;-69
2023/11/03 10:45:00;;;;;;;1.80;0.90;;;;;;;13.96;100.00;94534.75;1226111;75;2921331;-69
2023/11/03 10:47:35;;;;;;;1.65;0.70;;;;;;;13.97;100.00;94555.44;1225385;75;2942225;-70
2023/11/03 10:50:15;;;;;;;1.45;0.60;;;;;;;13.74;100.00;94563.31;1224414;75;2931235;-71
2023/11/03 10:52:54;;;;;;;1.75;0.70;;;;;;;13.69;100.00;94545.81;1224321;75;2925836;-72
2023/11/03 10:55:33;;;;;;;1.10;1.00;;;;;;;13.64;100.00;94558.50;1224799;75;2917919;-71
2023/11/03 10:58:08;;;;;;;1.20;1.05;;;;;;;13.62;100.00;94571.38;1224523;75;2918056;-72
2023/11/03 11:00:51;;;;;;;0.85;0.50;;;;;;;13.33;100.00;94585.69;1222812;75;2969871;-70
2023/11/03 11:03:30;;;;;;;1.35;0.60;;;;;;;13.51;100.00;94593.88;1225640;75;2920416;-70
2023/11/03 11:06:17;;;;;;;0.50;0.50;;;;;;;13.47;100.00;94594.31;1224479;75;2919341;-69
2023/11/03 11:08:51;;;;;;;1.05;0.50;;;;;;;13.14;100.00;94608.22;1224557;75;2921342;-68
2023/11/03 11:11:24;;;;;;;1.15;0.45;;;;;;;13.29;100.00;94596.34;1224233;75;2937358;-69
2023/11/03 11:13:56;;;;;;;1.35;0.55;;;;;;;13.42;100.00;94574.03;1223950;75;2952583;-69
2023/11/03 11:16:29;;;;;;;1.65;0.40;;;;;;;13.16;100.00;94571.97;1222944;75;2919415;-72
2023/11/03 11:19:04;;;;;;;3.80;0.60;;;;;;;13.37;100.00;94577.00;1224159;75;2920287;-70
2023/11/03 11:21:48;;;;;;;1.20;1.00;;;;;;;13.46;100.00;94590.09;1224862;75;2920258;-67
2023/11/03 11:24:25;;;;;;;1.85;1.40;;;;;;;13.20;100.00;94616.19;1224741;75;2918805;-69
2023/11/03 11:27:16;;;;;;;2.15;1.10;;;;;;;13.46;100.00;94628.56;1225070;75;2905298;-68
2023/11/03 11:29:52;;;;;;;1.55;0.90;;;;;;;13.25;100.00;94634.44;1223647;75;2916778;-71
2023/11/03 11:32:30;;;;;;;1.75;0.40;;;;;;;13.49;100.00;94623.94;1223372;75;2923141;-68
2023/11/03 11:35:03;;;;;;;0.35;0.35;;;;;;;13.77;100.00;94598.63;1223321;75;2926824;-69
2023/11/03 11:37:38;;;;;;;0.70;0.30;;;;;;;14.84;100.00;94576.16;1221713;75;2922256;-70
2023/11/03 11:40:12;;;;;;;1.15;0.80;;;;;;;15.97;94.15;94590.22;1220092;75;3102497;-69